Terminal Aerodrome Forecast
Issued by NWS

Home | Current Version | Previous Version | Text Only | Print | Product List | Glossary On
Versions: 1 2 3 4 5 6 7 8 9 10 11 12 13 14 15 16 17 18 19
000
FTUS44 KMAF 170500
TAFINK
TAF
KINK 170536Z 1706/1806 13015G25KT P6SM FEW250 WS010/18045KT
     FM171100 01012G20KT P6SM SCT250
     FM171800 02012KT P6SM SCT250
     FM172100 05011KT P6SM SCT250
     FM180000 08012KT P6SM SCT250=

USA.gov is the U.S. government's official web portal to all federal, state and local government web resources and services.